sensor_id;sensor_type;location;lat;lon;timestamp;pressure;altitude;pressure_sealevel;temperature;humidity
7962;BME280;4026;43.652;24.906;2022-11-20T00:00:16;98573.81;;;9.53;100.00
7962;BME280;4026;43.652;24.906;2022-11-20T00:02:43;98575.56;;;9.53;100.00
7962;BME280;4026;43.652;24.906;2022-11-20T00:05:09;98553.66;;;9.50;100.00
7962;BME280;4026;43.652;24.906;2022-11-20T00:07:38;98561.66;;;9.57;100.00
7962;BME280;4026;43.652;24.906;2022-11-20T00:10:05;98550.06;;;9.53;100.00
7962;BME280;4026;43.652;24.906;2022-11-20T00:12:32;98546.13;;;9.49;100.00
7962;BME280;4026;43.652;24.906;2022-11-20T00:15:00;98530.13;;;9.47;100.00
7962;BME280;4026;43.652;24.906;2022-11-20T00:17:27;98531.28;;;9.54;100.00
7962;BME280;4026;43.652;24.906;2022-11-20T00:19:54;98538.47;;;9.60;100.00
7962;BME280;4026;43.652;24.906;2022-11-20T00:22:21;98534.28;;;9.59;100.00
7962;BME280;4026;43.652;24.906;2022-11-20T00:24:49;98546.69;;;9.64;100.00
7962;BME280;4026;43.652;24.906;2022-11-20T00:27:16;98538.91;;;9.65;100.00
7962;BME280;4026;43.652;24.906;2022-11-20T00:29:42;98535.19;;;9.69;100.00
7962;BME280;4026;43.652;24.906;2022-11-20T00:32:09;98539.81;;;9.75;100.00
7962;BME280;4026;43.652;24.906;2022-11-20T00:34:36;98540.31;;;9.69;100.00
7962;BME280;4026;43.652;24.906;2022-11-20T00:37:03;98545.41;;;9.69;100.00
7962;BME280;4026;43.652;24.906;2022-11-20T00:39:29;98537.06;;;9.67;100.00
7962;BME280;4026;43.652;24.906;2022-11-20T00:41:57;98528.34;;;9.70;100.00
7962;BME280;4026;43.652;24.906;2022-11-20T00:44:24;98524.75;;;9.72;100.00
7962;BME280;4026;43.652;24.906;2022-11-20T00:46:51;98520.13;;;9.66;100.00
7962;BME280;4026;43.652;24.906;2022-11-20T00:49:18;98531.59;;;9.72;100.00
7962;BME280;4026;43.652;24.906;2022-11-20T00:51:44;98519.63;;;9.72;100.00
7962;BME280;4026;43.652;24.906;2022-11-20T00:54:11;98520.78;;;9.80;100.00
7962;BME280;4026;43.652;24.906;2022-11-20T00:56:38;98537.72;;;9.81;100.00
7962;BME280;4026;43.652;24.906;2022-11-20T00:59:08;98531.47;;;9.73;100.00
7962;BME280;4026;43.652;24.906;2022-11-20T01:01:37;98522.66;;;9.78;100.00
7962;BME280;4026;43.652;24.906;2022-11-20T01:04:04;98524.25;;;9.79;100.00
7962;BME280;4026;43.652;24.906;2022-11-20T01:06:32;98514.28;;;9.75;100.00
7962;BME280;4026;43.652;24.906;2022-11-20T01:09:00;98524.25;;;9.79;100.00
7962;BME280;4026;43.652;24.906;2022-11-20T01:11:29;98530.97;;;9.80;100.00
7962;BME280;4026;43.652;24.906;2022-11-20T01:13:58;98526.09;;;9.88;100.00
7962;BME280;4026;43.652;24.906;2022-11-20T01:16:29;98518.47;;;9.77;100.00
7962;BME280;4026;43.652;24.906;2022-11-20T01:18:58;98507.34;;;9.78;100.00
7962;BME280;4026;43.652;24.906;2022-11-20T01:21:26;98525.63;;;9.83;100.00
7962;BME280;4026;43.652;24.906;2022-11-20T01:23:54;98533.09;;;9.74;100.00
7962;BME280;4026;43.652;24.906;2022-11-20T01:26:22;98528.00;;;9.74;100.00
7962;BME280;4026;43.652;24.906;2022-11-20T01:28:50;98524.72;;;9.84;100.00
7962;BME280;4026;43.652;24.906;2022-11-20T01:31:18;98521.00;;;9.88;100.00
7962;BME280;4026;43.652;24.906;2022-11-20T01:33:48;98519.09;;;10.01;100.00
7962;BME280;4026;43.652;24.906;2022-11-20T01:36:16;98500.28;;;10.02;100.00
7962;BME280;4026;43.652;24.906;2022-11-20T01:38:45;98491.28;;;9.87;100.00
7962;BME280;4026;43.652;24.906;2022-11-20T01:41:13;98506.97;;;9.82;100.00
7962;BME280;4026;43.652;24.906;2022-11-20T01:44:02;98490.34;;;9.88;100.00
7962;BME280;4026;43.652;24.906;2022-11-20T01:46:28;98479.78;;;9.92;100.00
7962;BME280;4026;43.652;24.906;2022-11-20T01:48:59;98472.47;;;9.88;100.00
7962;BME280;4026;43.652;24.906;2022-11-20T01:51:31;98446.25;;;9.86;100.00
7962;BME280;4026;43.652;24.906;2022-11-20T01:54:01;98458.78;;;9.89;100.00
7962;BME280;4026;43.652;24.906;2022-11-20T01:56:31;98460.66;;;9.87;100.00
7962;BME280;4026;43.652;24.906;2022-11-20T01:59:02;98457.38;;;9.96;100.00
7962;BME280;4026;43.652;24.906;2022-11-20T02:01:30;98465.38;;;9.91;100.00
7962;BME280;4026;43.652;24.906;2022-11-20T02:03:59;98465.72;;;9.98;100.00
7962;BME280;4026;43.652;24.906;2022-11-20T02:06:29;98459.47;;;9.91;100.00
7962;BME280;4026;43.652;24.906;2022-11-20T02:08:57;98455.53;;;9.87;100.00
7962;BME280;4026;43.652;24.906;2022-11-20T02:11:24;98464.09;;;9.97;100.00
7962;BME280;4026;43.652;24.906;2022-11-20T02:13:51;98454.50;;;9.89;100.00
7962;BME280;4026;43.652;24.906;2022-11-20T02:16:23;98455.31;;;9.90;100.00
7962;BME280;4026;43.652;24.906;2022-11-20T02:18:51;98441.34;;;9.94;100.00
7962;BME280;4026;43.652;24.906;2022-11-20T02:21:26;98446.84;;;10.10;100.00
7962;BME280;4026;43.652;24.906;2022-11-20T02:24:11;98424.16;;;9.96;100.00
7962;BME280;4026;43.652;24.906;2022-11-20T02:26:44;98438.00;;;10.14;100.00
7962;BME280;4026;43.652;24.906;2022-11-20T02:29:13;98435.75;;;10.00;100.00
7962;BME280;4026;43.652;24.906;2022-11-20T02:31:43;98444.56;;;10.07;100.00
7962;BME280;4026;43.652;24.906;2022-11-20T02:34:10;98444.09;;;10.02;100.00
7962;BME280;4026;43.652;24.906;2022-11-20T02:36:39;98442.25;;;10.04;100.00
7962;BME280;4026;43.652;24.906;2022-11-20T02:39:10;98441.44;;;10.04;100.00
7962;BME280;4026;43.652;24.906;2022-11-20T02:41:38;98428.28;;;10.08;100.00
7962;BME280;4026;43.652;24.906;2022-11-20T02:44:05;98436.00;;;10.18;100.00
7962;BME280;4026;43.652;24.906;2022-11-20T02:46:32;98434.63;;;10.14;100.00
7962;BME280;4026;43.652;24.906;2022-11-20T02:49:01;98428.91;;;10.22;100.00
7962;BME280;4026;43.652;24.906;2022-11-20T02:51:28;98446.09;;;10.19;100.00
7962;BME280;4026;43.652;24.906;2022-11-20T02:53:55;98432.13;;;10.24;100.00
7962;BME280;4026;43.652;24.906;2022-11-20T02:56:23;98450.53;;;10.17;100.00
7962;BME280;4026;43.652;24.906;2022-11-20T02:58:51;98463.03;;;10.32;100.00
7962;BME280;4026;43.652;24.906;2022-11-20T03:01:17;98453.69;;;10.42;100.00
7962;BME280;4026;43.652;24.906;2022-11-20T03:03:44;98439.22;;;10.31;100.00
7962;BME280;4026;43.652;24.906;2022-11-20T03:06:14;98437.63;;;10.30;100.00
7962;BME280;4026;43.652;24.906;2022-11-20T03:08:40;98442.34;;;10.24;100.00
7962;BME280;4026;43.652;24.906;2022-11-20T03:11:07;98450.91;;;10.13;100.00
7962;BME280;4026;43.652;24.906;2022-11-20T03:13:36;98461.94;;;10.13;100.00
7962;BME280;4026;43.652;24.906;2022-11-20T03:16:08;98458.19;;;10.17;100.00
7962;BME280;4026;43.652;24.906;2022-11-20T03:18:35;98453.31;;;10.14;100.00
7962;BME280;4026;43.652;24.906;2022-11-20T03:21:01;98448.16;;;10.05;100.00
7962;BME280;4026;43.652;24.906;2022-11-20T03:23:29;98469.41;;;10.05;100.00
7962;BME280;4026;43.652;24.906;2022-11-20T03:25:56;98486.09;;;10.09;100.00
7962;BME280;4026;43.652;24.906;2022-11-20T03:28:33;98493.94;;;10.17;100.00
7962;BME280;4026;43.652;24.906;2022-11-20T03:31:06;98496.78;;;10.03;100.00
7962;BME280;4026;43.652;24.906;2022-11-20T03:33:33;98519.47;;;9.85;100.00
7962;BME280;4026;43.652;24.906;2022-11-20T03:36:01;98535.69;;;9.63;100.00
7962;BME280;4026;43.652;24.906;2022-11-20T03:38:28;98525.25;;;9.55;100.00
7962;BME280;4026;43.652;24.906;2022-11-20T03:40:58;98533.38;;;9.26;100.00
7962;BME280;4026;43.652;24.906;2022-11-20T03:43:25;98539.41;;;9.37;100.00
7962;BME280;4026;43.652;24.906;2022-11-20T03:45:52;98543.56;;;9.15;100.00
7962;BME280;4026;43.652;24.906;2022-11-20T03:48:20;98539.41;;;9.25;100.00
7962;BME280;4026;43.652;24.906;2022-11-20T03:50:47;98569.16;;;8.91;100.00
7962;BME280;4026;43.652;24.906;2022-11-20T03:53:14;98549.78;;;8.89;100.00
7962;BME280;4026;43.652;24.906;2022-11-20T03:55:41;98557.91;;;8.82;100.00
7962;BME280;4026;43.652;24.906;2022-11-20T03:58:08;98557.91;;;8.82;100.00
7962;BME280;4026;43.652;24.906;2022-11-20T04:00:35;98552.22;;;8.79;100.00
7962;BME280;4026;43.652;24.906;2022-11-20T04:03:02;98566.72;;;8.90;100.00
7962;BME280;4026;43.652;24.906;2022-11-20T04:05:32;98535.06;;;8.81;100.00
7962;BME280;4026;43.652;24.906;2022-11-20T04:07:59;98562.03;;;8.72;100.00
7962;BME280;4026;43.652;24.906;2022-11-20T04:10:26;98547.56;;;8.84;100.00
7962;BME280;4026;43.652;24.906;2022-11-20T04:12:53;98566.91;;;8.75;100.00
7962;BME280;4026;43.652;24.906;2022-11-20T04:15:20;98573.47;;;8.67;100.00
7962;BME280;4026;43.652;24.906;2022-11-20T04:17:46;98584.97;;;8.61;100.00
7962;BME280;4026;43.652;24.906;2022-11-20T04:20:13;98601.09;;;8.49;100.00
7962;BME280;4026;43.652;24.906;2022-11-20T04:22:41;98592.06;;;8.45;100.00
7962;BME280;4026;43.652;24.906;2022-11-20T04:25:08;98592.69;;;8.35;100.00
7962;BME280;4026;43.652;24.906;2022-11-20T04:27:35;98586.81;;;8.59;100.00
7962;BME280;4026;43.652;24.906;2022-11-20T04:30:02;98599.38;;;8.49;100.00
7962;BME280;4026;43.652;24.906;2022-11-20T04:32:29;98591.19;;;8.57;100.00
7962;BME280;4026;43.652;24.906;2022-11-20T04:34:56;98605.16;;;8.51;100.00
7962;BME280;4026;43.652;24.906;2022-11-20T04:37:23;98622.06;;;8.28;100.00
7962;BME280;4026;43.652;24.906;2022-11-20T04:39:51;98642.25;;;8.19;100.00
7962;BME280;4026;43.652;24.906;2022-11-20T04:42:17;98637.00;;;8.09;100.00
7962;BME280;4026;43.652;24.906;2022-11-20T04:44:56;98628.66;;;8.07;100.00
7962;BME280;4026;43.652;24.906;2022-11-20T04:47:23;98626.59;;;8.12;100.00
7962;BME280;4026;43.652;24.906;2022-11-20T04:49:50;98643.53;;;8.00;100.00
7962;BME280;4026;43.652;24.906;2022-11-20T04:52:17;98637.22;;;8.06;100.00
7962;BME280;4026;43.652;24.906;2022-11-20T04:54:44;98630.06;;;8.11;100.00
7962;BME280;4026;43.652;24.906;2022-11-20T04:57:14;98648.31;;;8.05;100.00
7962;BME280;4026;43.652;24.906;2022-11-20T04:59:41;98647.00;;;7.99;100.00
7962;BME280;4026;43.652;24.906;2022-11-20T05:02:08;98620.78;;;8.10;100.00
7962;BME280;4026;43.652;24.906;2022-11-20T05:04:34;98631.94;;;7.96;100.00
7962;BME280;4026;43.652;24.906;2022-11-20T05:07:01;98627.22;;;8.03;100.00
7962;BME280;4026;43.652;24.906;2022-11-20T05:09:29;98631.41;;;8.04;100.00
7962;BME280;4026;43.652;24.906;2022-11-20T05:11:56;98645.47;;;7.97;100.00
7962;BME280;4026;43.652;24.906;2022-11-20T05:14:24;98661.97;;;8.04;100.00
7962;BME280;4026;43.652;24.906;2022-11-20T05:16:51;98658.81;;;7.87;100.00
7962;BME280;4026;43.652;24.906;2022-11-20T05:19:17;98658.13;;;7.85;100.00
7962;BME280;4026;43.652;24.906;2022-11-20T05:21:44;98637.06;;;7.83;100.00
7962;BME280;4026;43.652;24.906;2022-11-20T05:24:11;98643.38;;;7.78;100.00
7962;BME280;4026;43.652;24.906;2022-11-20T05:26:38;98640.09;;;7.88;100.00
7962;BME280;4026;43.652;24.906;2022-11-20T05:29:05;98644.28;;;7.89;100.00
7962;BME280;4026;43.652;24.906;2022-11-20T05:31:33;98643.34;;;7.90;100.00
7962;BME280;4026;43.652;24.906;2022-11-20T05:33:59;98645.59;;;7.82;100.00
7962;BME280;4026;43.652;24.906;2022-11-20T05:36:26;98641.13;;;7.73;100.00
7962;BME280;4026;43.652;24.906;2022-11-20T05:38:53;98656.59;;;7.70;100.00
7962;BME280;4026;43.652;24.906;2022-11-20T05:41:20;98665.38;;;7.66;100.00
7962;BME280;4026;43.652;24.906;2022-11-20T05:43:48;98665.16;;;7.56;100.00
7962;BME280;4026;43.652;24.906;2022-11-20T05:46:16;98664.25;;;7.57;100.00
7962;BME280;4026;43.652;24.906;2022-11-20T05:48:46;98668.81;;;7.52;100.00
7962;BME280;4026;43.652;24.906;2022-11-20T05:51:14;98674.94;;;7.49;100.00
7962;BME280;4026;43.652;24.906;2022-11-20T05:53:41;98677.59;;;7.48;100.00
7962;BME280;4026;43.652;24.906;2022-11-20T05:56:11;98696.94;;;7.51;100.00
7962;BME280;4026;43.652;24.906;2022-11-20T05:58:40;98696.19;;;7.61;100.00
7962;BME280;4026;43.652;24.906;2022-11-20T06:01:09;98701.81;;;7.54;100.00
7962;BME280;4026;43.652;24.906;2022-11-20T06:03:36;98710.94;;;7.43;100.00
7962;BME280;4026;43.652;24.906;2022-11-20T06:06:05;98725.00;;;7.62;100.00
7962;BME280;4026;43.652;24.906;2022-11-20T06:08:32;98737.63;;;7.63;100.00
7962;BME280;4026;43.652;24.906;2022-11-20T06:11:03;98730.81;;;7.64;100.00
7962;BME280;4026;43.652;24.906;2022-11-20T06:13:30;98735.69;;;7.67;100.00
7962;BME280;4026;43.652;24.906;2022-11-20T06:15:56;98745.34;;;7.62;100.00
7962;BME280;4026;43.652;24.906;2022-11-20T06:18:25;98742.91;;;7.73;100.00
7962;BME280;4026;43.652;24.906;2022-11-20T06:20:59;98752.28;;;7.72;100.00
7962;BME280;4026;43.652;24.906;2022-11-20T06:23:29;98741.50;;;7.69;100.00
7962;BME280;4026;43.652;24.906;2022-11-20T06:25:56;98729.50;;;7.71;100.00
7962;BME280;4026;43.652;24.906;2022-11-20T06:28:23;98716.88;;;7.69;100.00
7962;BME280;4026;43.652;24.906;2022-11-20T06:30:49;98697.72;;;7.64;100.00
7962;BME280;4026;43.652;24.906;2022-11-20T06:33:16;98707.09;;;7.51;100.00
7962;BME280;4026;43.652;24.906;2022-11-20T06:35:43;98711.59;;;7.60;100.00
7962;BME280;4026;43.652;24.906;2022-11-20T06:38:10;98705.47;;;7.62;100.00
7962;BME280;4026;43.652;24.906;2022-11-20T06:40:39;98713.19;;;7.61;100.00
7962;BME280;4026;43.652;24.906;2022-11-20T06:43:06;98730.91;;;7.75;100.00
7962;BME280;4026;43.652;24.906;2022-11-20T06:45:33;98736.09;;;7.74;100.00
7962;BME280;4026;43.652;24.906;2022-11-20T06:47:59;98745.56;;;7.71;100.00
7962;BME280;4026;43.652;24.906;2022-11-20T06:50:26;98738.13;;;7.81;100.00
7962;BME280;4026;43.652;24.906;2022-11-20T06:52:53;98748.00;;;7.73;100.00
7962;BME280;4026;43.652;24.906;2022-11-20T06:55:20;98737.03;;;7.85;100.00
7962;BME280;4026;43.652;24.906;2022-11-20T06:57:48;98738.13;;;7.81;100.00
7962;BME280;4026;43.652;24.906;2022-11-20T07:00:15;98725.72;;;7.77;100.00
7962;BME280;4026;43.652;24.906;2022-11-20T07:02:42;98727.16;;;7.68;100.00
7962;BME280;4026;43.652;24.906;2022-11-20T07:05:08;98736.22;;;7.72;100.00
7962;BME280;4026;43.652;24.906;2022-11-20T07:07:35;98735.59;;;7.68;100.00
7962;BME280;4026;43.652;24.906;2022-11-20T07:10:02;98730.91;;;7.75;100.00
7962;BME280;4026;43.652;24.906;2022-11-20T07:12:29;98740.50;;;7.71;100.00
7962;BME280;4026;43.652;24.906;2022-11-20T07:14:57;98759.44;;;7.80;100.00
7962;BME280;4026;43.652;24.906;2022-11-20T07:17:24;98770.19;;;7.58;100.00
7962;BME280;4026;43.652;24.906;2022-11-20T07:19:51;98786.13;;;7.47;100.00
7962;BME280;4026;43.652;24.906;2022-11-20T07:22:17;98787.44;;;7.40;100.00
7962;BME280;4026;43.652;24.906;2022-11-20T07:24:46;98795.53;;;7.20;100.00
7962;BME280;4026;43.652;24.906;2022-11-20T07:27:13;98786.22;;;7.33;100.00
7962;BME280;4026;43.652;24.906;2022-11-20T07:29:40;98786.25;;;7.59;100.00
7962;BME280;4026;43.652;24.906;2022-11-20T07:32:08;98808.06;;;7.76;100.00
7962;BME280;4026;43.652;24.906;2022-11-20T07:34:35;98803.09;;;7.87;100.00
7962;BME280;4026;43.652;24.906;2022-11-20T07:37:02;98790.56;;;7.71;100.00
7962;BME280;4026;43.652;24.906;2022-11-20T07:39:28;98803.00;;;7.88;100.00
7962;BME280;4026;43.652;24.906;2022-11-20T07:41:55;98791.69;;;7.92;100.00
7962;BME280;4026;43.652;24.906;2022-11-20T07:44:22;98783.44;;;8.02;100.00
7962;BME280;4026;43.652;24.906;2022-11-20T07:46:49;98780.69;;;8.05;100.00
7962;BME280;4026;43.652;24.906;2022-11-20T07:49:17;98779.97;;;8.15;100.00
7962;BME280;4026;43.652;24.906;2022-11-20T07:51:43;98789.25;;;8.16;100.00
7962;BME280;4026;43.652;24.906;2022-11-20T07:54:10;98791.59;;;8.32;100.00
7962;BME280;4026;43.652;24.906;2022-11-20T07:56:37;98804.63;;;8.41;100.00
7962;BME280;4026;43.652;24.906;2022-11-20T07:59:04;98816.84;;;8.35;100.00
7962;BME280;4026;43.652;24.906;2022-11-20T08:01:30;98813.19;;;8.39;100.00
7962;BME280;4026;43.652;24.906;2022-11-20T08:03:57;98794.44;;;8.41;100.00
7962;BME280;4026;43.652;24.906;2022-11-20T08:06:25;98787.19;;;8.34;100.00
7962;BME280;4026;43.652;24.906;2022-11-20T08:08:52;98776.50;;;8.42;100.00
7962;BME280;4026;43.652;24.906;2022-11-20T08:11:19;98782.41;;;8.55;100.00
7962;BME280;4026;43.652;24.906;2022-11-20T08:14:03;98772.88;;;8.70;100.00
7962;BME280;4026;43.652;24.906;2022-11-20T08:16:38;98769.47;;;8.82;100.00
7962;BME280;4026;43.652;24.906;2022-11-20T08:19:05;98788.34;;;9.04;100.00
7962;BME280;4026;43.652;24.906;2022-11-20T08:21:34;98788.19;;;8.94;100.00
7962;BME280;4026;43.652;24.906;2022-11-20T08:24:01;98775.16;;;9.10;100.00
7962;BME280;4026;43.652;24.906;2022-11-20T08:26:28;98771.53;;;9.25;100.00
7962;BME280;4026;43.652;24.906;2022-11-20T08:28:55;98769.38;;;9.08;100.00
7962;BME280;4026;43.652;24.906;2022-11-20T08:31:23;98778.22;;;9.15;100.00
7962;BME280;4026;43.652;24.906;2022-11-20T08:33:50;98777.41;;;9.15;100.00
7962;BME280;4026;43.652;24.906;2022-11-20T08:36:18;98766.44;;;9.25;100.00
7962;BME280;4026;43.652;24.906;2022-11-20T08:38:48;98782.88;;;9.21;100.00
7962;BME280;4026;43.652;24.906;2022-11-20T08:41:15;98789.59;;;9.46;100.00
7962;BME280;4026;43.652;24.906;2022-11-20T08:43:55;98776.09;;;9.44;100.00
7962;BME280;4026;43.652;24.906;2022-11-20T08:46:22;98784.94;;;9.40;100.00
7962;BME280;4026;43.652;24.906;2022-11-20T08:48:50;98775.41;;;9.42;100.00
7962;BME280;4026;43.652;24.906;2022-11-20T08:51:17;98775.38;;;9.31;100.00
7962;BME280;4026;43.652;24.906;2022-11-20T08:53:44;98783.63;;;9.35;100.00
7962;BME280;4026;43.652;24.906;2022-11-20T08:56:12;98793.72;;;9.12;100.00
7962;BME280;4026;43.652;24.906;2022-11-20T08:58:39;98777.09;;;9.19;100.00
7962;BME280;4026;43.652;24.906;2022-11-20T09:01:06;98773.38;;;9.23;100.00
7962;BME280;4026;43.652;24.906;2022-11-20T09:03:33;98792.00;;;9.13;100.00
7962;BME280;4026;43.652;24.906;2022-11-20T09:06:01;98780.22;;;8.99;100.00
7962;BME280;4026;43.652;24.906;2022-11-20T09:08:28;98778.59;;;8.98;100.00
7962;BME280;4026;43.652;24.906;2022-11-20T09:10:56;98763.06;;;9.01;100.00
7962;BME280;4026;43.652;24.906;2022-11-20T09:13:27;98757.59;;;9.18;100.00
7962;BME280;4026;43.652;24.906;2022-11-20T09:15:55;98752.53;;;9.29;100.00
7962;BME280;4026;43.652;24.906;2022-11-20T09:18:22;98745.34;;;9.35;100.00
7962;BME280;4026;43.652;24.906;2022-11-20T09:20:49;98750.47;;;9.35;100.00
7962;BME280;4026;43.652;24.906;2022-11-20T09:23:16;98741.38;;;9.19;100.00
7962;BME280;4026;43.652;24.906;2022-11-20T09:25:43;98733.44;;;9.11;100.00
7962;BME280;4026;43.652;24.906;2022-11-20T09:28:10;98728.41;;;9.22;100.00
7962;BME280;4026;43.652;24.906;2022-11-20T09:30:38;98731.22;;;9.42;100.00
7962;BME280;4026;43.652;24.906;2022-11-20T09:33:05;98746.00;;;9.61;100.00
7962;BME280;4026;43.652;24.906;2022-11-20T09:35:32;98743.56;;;9.59;100.00
7962;BME280;4026;43.652;24.906;2022-11-20T09:38:04;98737.75;;;9.68;100.00
7962;BME280;4026;43.652;24.906;2022-11-20T09:40:32;98726.97;;;9.65;100.00
7962;BME280;4026;43.652;24.906;2022-11-20T09:43:03;98718.84;;;9.60;100.00
7962;BME280;4026;43.652;24.906;2022-11-20T09:45:50;98717.81;;;9.62;100.00
7962;BME280;4026;43.652;24.906;2022-11-20T09:48:36;98712.16;;;9.23;100.00
7962;BME280;4026;43.652;24.906;2022-11-20T09:51:16;98711.75;;;9.52;100.00
7962;BME280;4026;43.652;24.906;2022-11-20T09:53:58;98710.75;;;9.66;100.00
7962;BME280;4026;43.652;24.906;2022-11-20T09:56:28;98710.88;;;9.75;100.00
7962;BME280;4026;43.652;24.906;2022-11-20T09:58:58;98702.97;;;9.79;100.00
7962;BME280;4026;43.652;24.906;2022-11-20T10:01:31;98701.13;;;9.81;100.00
7962;BME280;4026;43.652;24.906;2022-11-20T10:04:02;98687.75;;;9.88;100.00
7962;BME280;4026;43.652;24.906;2022-11-20T10:06:31;98685.59;;;9.95;100.00
7962;BME280;4026;43.652;24.906;2022-11-20T10:09:06;98690.69;;;9.95;100.00
7962;BME280;4026;43.652;24.906;2022-11-20T10:11:45;98697.16;;;10.10;100.00
7962;BME280;4026;43.652;24.906;2022-11-20T10:14:20;98706.69;;;10.19;100.00
7962;BME280;4026;43.652;24.906;2022-11-20T10:17:02;98713.88;;;10.14;100.00
7962;BME280;4026;43.652;24.906;2022-11-20T10:19:43;98723.63;;;10.20;100.00
7962;BME280;4026;43.652;24.906;2022-11-20T10:22:22;98726.41;;;10.06;100.00
7962;BME280;4026;43.652;24.906;2022-11-20T10:24:56;98734.56;;;10.11;100.00
7962;BME280;4026;43.652;24.906;2022-11-20T10:30:22;98736.06;;;10.03;100.00
7962;BME280;4026;43.652;24.906;2022-11-20T10:32:54;98745.94;;;10.18;100.00
7962;BME280;4026;43.652;24.906;2022-11-20T10:35:28;98746.19;;;10.27;100.00
7962;BME280;4026;43.652;24.906;2022-11-20T10:38:00;98741.06;;;10.27;100.00
7962;BME280;4026;43.652;24.906;2022-11-20T10:40:32;98742.00;;;10.48;100.00
7962;BME280;4026;43.652;24.906;2022-11-20T10:43:02;98757.22;;;10.38;100.00
7962;BME280;4026;43.652;24.906;2022-11-20T10:45:42;98758.50;;;10.33;100.00
7962;BME280;4026;43.652;24.906;2022-11-20T10:48:20;98746.41;;;10.35;100.00
7962;BME280;4026;43.652;24.906;2022-11-20T10:51:03;98756.16;;;10.41;100.00
7962;BME280;4026;43.652;24.906;2022-11-20T10:53:45;98768.38;;;10.37;100.00
7962;BME280;4026;43.652;24.906;2022-11-20T10:56:19;98765.56;;;10.29;100.00
7962;BME280;4026;43.652;24.906;2022-11-20T10:58:58;98778.47;;;10.28;100.00
7962;BME280;4026;43.652;24.906;2022-11-20T11:01:28;98778.44;;;10.16;100.00
7962;BME280;4026;43.652;24.906;2022-11-20T11:03:57;98790.06;;;9.98;100.00
7962;BME280;4026;43.652;24.906;2022-11-20T11:06:31;98800.00;;;9.79;100.00
7962;BME280;4026;43.652;24.906;2022-11-20T11:09:04;98783.53;;;9.94;100.00
7962;BME280;4026;43.652;24.906;2022-11-20T11:11:35;98782.59;;;9.84;100.00
7962;BME280;4026;43.652;24.906;2022-11-20T11:14:05;98785.63;;;9.78;100.00
7962;BME280;4026;43.652;24.906;2022-11-20T11:16:33;98785.94;;;9.73;100.00
7962;BME280;4026;43.652;24.906;2022-11-20T11:19:05;98779.34;;;9.82;100.00
7962;BME280;4026;43.652;24.906;2022-11-20T11:21:32;98776.78;;;9.82;100.00
7962;BME280;4026;43.652;24.906;2022-11-20T11:24:01;98767.63;;;9.79;100.00
7962;BME280;4026;43.652;24.906;2022-11-20T11:26:28;98758.22;;;9.91;100.00
7962;BME280;4026;43.652;24.906;2022-11-20T11:28:56;98741.28;;;9.90;100.00
7962;BME280;4026;43.652;24.906;2022-11-20T11:31:25;98725.97;;;9.90;100.00
7962;BME280;4026;43.652;24.906;2022-11-20T11:33:52;98729.44;;;9.89;100.00
7962;BME280;4026;43.652;24.906;2022-11-20T11:36:22;98738.50;;;9.82;100.00
7962;BME280;4026;43.652;24.906;2022-11-20T11:38:51;98736.19;;;9.90;100.00
7962;BME280;4026;43.652;24.906;2022-11-20T11:41:20;98720.25;;;9.64;100.00
7962;BME280;4026;43.652;24.906;2022-11-20T11:43:54;98716.41;;;9.58;100.00
7962;BME280;4026;43.652;24.906;2022-11-20T11:46:51;98705.69;;;9.42;100.00
7962;BME280;4026;43.652;24.906;2022-11-20T11:49:19;98701.09;;;9.58;100.00
7962;BME280;4026;43.652;24.906;2022-11-20T11:51:58;98682.31;;;9.82;100.00
7962;BME280;4026;43.652;24.906;2022-11-20T11:54:31;98678.81;;;9.83;100.00
7962;BME280;4026;43.652;24.906;2022-11-20T11:57:05;98684.31;;;9.89;100.00
7962;BME280;4026;43.652;24.906;2022-11-20T11:59:43;98669.56;;;9.82;100.00
7962;BME280;4026;43.652;24.906;2022-11-20T12:02:22;98660.38;;;9.90;100.00
7962;BME280;4026;43.652;24.906;2022-11-20T12:04:56;98656.66;;;9.94;100.00
7962;BME280;4026;43.652;24.906;2022-11-20T12:07:34;98658.97;;;10.09;100.00
7962;BME280;4026;43.652;24.906;2022-11-20T12:10:03;98657.00;;;10.01;100.00
7962;BME280;4026;43.652;24.906;2022-11-20T12:12:32;98650.41;;;9.98;100.00
7962;BME280;4026;43.652;24.906;2022-11-20T12:15:06;98648.63;;;10.10;100.00
7962;BME280;4026;43.652;24.906;2022-11-20T12:17:34;98647.03;;;9.98;100.00
7962;BME280;4026;43.652;24.906;2022-11-20T12:20:01;98629.75;;;9.90;100.00
7962;BME280;4026;43.652;24.906;2022-11-20T12:22:34;98629.84;;;9.89;100.00
7962;BME280;4026;43.652;24.906;2022-11-20T12:25:07;98646.09;;;10.10;100.00
7962;BME280;4026;43.652;24.906;2022-11-20T12:27:44;98652.63;;;9.92;100.00
7962;BME280;4026;43.652;24.906;2022-11-20T12:30:15;98659.81;;;9.87;100.00
7962;BME280;4026;43.652;24.906;2022-11-20T12:32:52;98658.88;;;9.99;100.00
7962;BME280;4026;43.652;24.906;2022-11-20T12:35:36;98651.31;;;9.97;100.00
7962;BME280;4026;43.652;24.906;2022-11-20T12:38:32;98647.94;;;10.08;100.00
7962;BME280;4026;43.652;24.906;2022-11-20T12:41:05;98640.50;;;10.16;100.00
7962;BME280;4026;43.652;24.906;2022-11-20T12:43:39;98644.91;;;10.14;100.00
7962;BME280;4026;43.652;24.906;2022-11-20T12:46:30;98652.25;;;10.08;100.00
7962;BME280;4026;43.652;24.906;2022-11-20T12:49:12;98658.38;;;10.05;100.00
7962;BME280;4026;43.652;24.906;2022-11-20T12:52:13;98676.50;;;9.91;100.00
7962;BME280;4026;43.652;24.906;2022-11-20T12:55:11;98679.88;;;9.80;100.00
7962;BME280;4026;43.652;24.906;2022-11-20T12:57:45;98701.47;;;9.87;100.00
7962;BME280;4026;43.652;24.906;2022-11-20T13:00:18;98697.88;;;9.79;100.00
7962;BME280;4026;43.652;24.906;2022-11-20T13:03:03;98696.38;;;9.87;100.00
7962;BME280;4026;43.652;24.906;2022-11-20T13:05:39;98672.56;;;9.75;100.00
7962;BME280;4026;43.652;24.906;2022-11-20T13:08:16;98670.50;;;9.69;100.00
7962;BME280;4026;43.652;24.906;2022-11-20T13:10:51;98678.94;;;9.70;100.00
7962;BME280;4026;43.652;24.906;2022-11-20T13:13:25;98691.47;;;9.62;100.00
7962;BME280;4026;43.652;24.906;2022-11-20T13:16:00;98704.13;;;9.63;100.00
7962;BME280;4026;43.652;24.906;2022-11-20T13:18:37;98733.91;;;9.63;100.00
7962;BME280;4026;43.652;24.906;2022-11-20T13:21:16;98785.19;;;9.48;100.00
7962;BME280;4026;43.652;24.906;2022-11-20T13:23:44;98793.44;;;9.52;100.00
7962;BME280;4026;43.652;24.906;2022-11-20T13:26:19;98739.00;;;9.40;100.00